createdAt,value
2016-07-11T00:00:26.910Z,1003.47
2016-07-11T00:01:26.910Z,1003.45
2016-07-11T00:02:26.911Z,1003.44
2016-07-11T00:03:26.913Z,1003.4
2016-07-11T00:04:26.910Z,1003.42
2016-07-11T00:05:26.914Z,1003.4
2016-07-11T00:06:26.915Z,1003.38
2016-07-11T00:07:26.914Z,1003.39
2016-07-11T00:08:26.915Z,1003.39
2016-07-11T00:09:26.914Z,1003.41
2016-07-11T00:10:26.916Z,1003.42
2016-07-11T00:11:26.918Z,1003.42
2016-07-11T00:12:26.916Z,1003.41
2016-07-11T00:13:26.918Z,1003.4
2016-07-11T00:14:26.919Z,1003.39
2016-07-11T00:15:26.918Z,1003.42
2016-07-11T00:16:26.922Z,1003.41
2016-07-11T00:17:26.928Z,1003.4
2016-07-11T00:18:26.923Z,1003.36
2016-07-11T00:19:26.924Z,1003.36
2016-07-11T00:20:26.923Z,1003.35
2016-07-11T00:21:26.925Z,1003.35
2016-07-11T00:22:26.926Z,1003.32
2016-07-11T00:23:26.927Z,1003.34
2016-07-11T00:24:26.932Z,1003.31
2016-07-11T00:25:26.930Z,1003.32
2016-07-11T00:26:26.930Z,1003.28
2016-07-11T00:27:26.929Z,1003.27
2016-07-11T00:28:26.932Z,1003.29
2016-07-11T00:29:26.932Z,1003.26
2016-07-11T00:30:26.932Z,1003.29
2016-07-11T00:31:26.935Z,1003.33
2016-07-11T00:32:26.934Z,1003.25
2016-07-11T00:33:26.935Z,1003.26
2016-07-11T00:34:26.934Z,1003.28
2016-07-11T00:35:26.938Z,1003.28
2016-07-11T00:36:26.938Z,1003.26
2016-07-11T00:37:26.937Z,1003.21
2016-07-11T00:38:26.941Z,1003.22
2016-07-11T00:39:26.939Z,1003.2
2016-07-11T00:40:27.722Z,1003.21
2016-07-11T00:41:27.592Z,1003.21
2016-07-11T00:42:26.941Z,1003.18
2016-07-11T00:43:27.355Z,1003.19
2016-07-11T00:44:27.256Z,1003.2
2016-07-11T00:45:26.946Z,1003.16
2016-07-11T00:46:26.944Z,1003.17
2016-07-11T00:47:26.945Z,1003.15
2016-07-11T00:48:26.948Z,1003.16
2016-07-11T00:49:26.947Z,1003.13
2016-07-11T00:50:26.948Z,1003.16
2016-07-11T00:51:26.948Z,1003.12
2016-07-11T00:52:26.949Z,1003.14
2016-07-11T00:53:26.952Z,1003.12
2016-07-11T00:54:26.953Z,1003.1
2016-07-11T00:55:26.953Z,1003.12
2016-07-11T00:56:26.953Z,1003.12
2016-07-11T00:57:26.955Z,1003.1
2016-07-11T00:58:26.953Z,1003.09
2016-07-11T00:59:26.967Z,1003.08
2016-07-11T01:00:26.957Z,1003.03
2016-07-11T01:01:26.955Z,1003.04
2016-07-11T01:02:26.956Z,1003.01
2016-07-11T01:03:26.958Z,1003.02
2016-07-11T01:04:26.959Z,1002.97
2016-07-11T01:05:26.959Z,1002.98
2016-07-11T01:06:26.959Z,1002.97
2016-07-11T01:07:26.959Z,1002.97
2016-07-11T01:08:26.960Z,1002.99
2016-07-11T01:09:26.960Z,1002.99
2016-07-11T01:10:26.963Z,1003
2016-07-11T01:11:26.962Z,1003
2016-07-11T01:12:28.164Z,1002.97
2016-07-11T01:13:28.018Z,1002.98
2016-07-11T01:14:26.966Z,1002.95
2016-07-11T01:15:26.966Z,1002.92
2016-07-11T01:16:26.968Z,1002.92
2016-07-11T01:17:26.966Z,1002.91
2016-07-11T01:18:26.968Z,1002.9
2016-07-11T01:19:26.967Z,1002.83
2016-07-11T01:20:26.969Z,1002.91
2016-07-11T01:21:26.968Z,1002.89
2016-07-11T01:22:26.968Z,1002.88
2016-07-11T01:23:26.969Z,1002.83
2016-07-11T01:24:26.972Z,1002.85
2016-07-11T01:25:26.972Z,1002.88
2016-07-11T01:26:26.973Z,1002.87
2016-07-11T01:27:26.971Z,1002.89
2016-07-11T01:28:26.974Z,1002.86
2016-07-11T01:29:26.973Z,1002.88
2016-07-11T01:30:26.973Z,1002.85
2016-07-11T01:31:26.974Z,1002.85
2016-07-11T01:32:26.974Z,1002.89
2016-07-11T01:33:26.980Z,1002.87
2016-07-11T01:34:26.979Z,1002.83
2016-07-11T01:35:26.976Z,1002.83
2016-07-11T01:36:26.979Z,1002.83
2016-07-11T01:37:26.979Z,1002.82
2016-07-11T01:38:26.979Z,1002.8
2016-07-11T01:39:26.979Z,1002.82
2016-07-11T01:40:26.981Z,1002.83
2016-07-11T01:41:26.980Z,1002.8
2016-07-11T01:42:26.983Z,1002.76
2016-07-11T01:43:26.982Z,1002.8
2016-07-11T01:44:26.983Z,1002.81
2016-07-11T01:45:26.983Z,1002.8
2016-07-11T01:46:26.983Z,1002.8
2016-07-11T01:47:26.984Z,1002.76
2016-07-11T01:48:26.985Z,1002.73
2016-07-11T01:51:26.989Z,1002.68
2016-07-11T01:52:26.989Z,1002.67
2016-07-11T01:53:26.987Z,1002.67
2016-07-11T01:54:26.990Z,1002.69
2016-07-11T01:55:26.988Z,1002.72
2016-07-11T01:56:26.992Z,1002.7
2016-07-11T01:57:26.989Z,1002.69
2016-07-11T01:58:26.992Z,1002.68
2016-07-11T01:59:26.993Z,1002.71
2016-07-11T02:00:28.471Z,1002.7
2016-07-11T02:01:27.510Z,1002.69
2016-07-11T02:02:26.994Z,1002.67
2016-07-11T02:03:26.995Z,1002.63
2016-07-11T02:04:26.995Z,1002.63
2016-07-11T02:05:26.996Z,1002.64
2016-07-11T02:06:26.996Z,1002.59
2016-07-11T02:07:26.996Z,1002.59
2016-07-11T02:08:26.995Z,1002.59
2016-07-11T02:09:26.995Z,1002.6
2016-07-11T02:10:26.996Z,1002.6
2016-07-11T02:11:27.009Z,1002.6
2016-07-11T02:12:26.999Z,1002.58
2016-07-11T02:13:26.998Z,1002.57
2016-07-11T02:14:27.001Z,1002.6
2016-07-11T02:15:26.998Z,1002.56
2016-07-11T02:16:27.001Z,1002.53
2016-07-11T02:17:27.001Z,1002.53
2016-07-11T02:18:27.003Z,1002.54
2016-07-11T02:19:27.000Z,1002.56
2016-07-11T02:20:27.000Z,1002.56
2016-07-11T02:21:27.003Z,1002.54
2016-07-11T02:22:27.003Z,1002.57
2016-07-11T02:23:27.004Z,1002.57
2016-07-11T02:24:27.003Z,1002.59
2016-07-11T02:25:27.005Z,1002.55
2016-07-11T02:26:27.004Z,1002.52
2016-07-11T02:27:27.005Z,1002.55
2016-07-11T02:28:27.004Z,1002.57
2016-07-11T02:29:27.004Z,1002.58
2016-07-11T02:30:27.006Z,1002.53
2016-07-11T02:31:27.658Z,1002.55
2016-07-11T02:32:27.005Z,1002.54
2016-07-11T02:33:27.006Z,1002.53
2016-07-11T02:34:27.006Z,1002.52
2016-07-11T02:35:27.006Z,1002.5
2016-07-11T02:36:27.010Z,1002.49
2016-07-11T02:37:27.009Z,1002.55
2016-07-11T02:38:27.009Z,1002.54
2016-07-11T02:39:27.010Z,1002.51
2016-07-11T02:40:27.019Z,1002.53
2016-07-11T02:41:27.010Z,1002.54
2016-07-11T02:42:27.012Z,1002.54
2016-07-11T02:43:27.012Z,1002.52
2016-07-11T02:44:27.012Z,1002.53
2016-07-11T02:45:27.012Z,1002.48
2016-07-11T02:46:27.013Z,1002.5
2016-07-11T02:47:27.012Z,1002.48
2016-07-11T02:48:27.013Z,1002.53
2016-07-11T02:49:27.012Z,1002.57
2016-07-11T02:50:27.014Z,1002.54
2016-07-11T02:51:27.013Z,1002.52
2016-07-11T02:52:27.015Z,1002.52
2016-07-11T02:53:27.014Z,1002.52
2016-07-11T02:54:27.014Z,1002.54
2016-07-11T02:55:27.015Z,1002.52
2016-07-11T02:56:27.015Z,1002.52
2016-07-11T02:57:27.015Z,1002.48
2016-07-11T02:58:27.015Z,1002.49
2016-07-11T02:59:27.017Z,1002.48
2016-07-11T03:00:27.019Z,1002.48
2016-07-11T03:01:27.018Z,1002.41
2016-07-11T03:02:27.020Z,1002.48
2016-07-11T03:03:27.019Z,1002.48
2016-07-11T03:04:27.020Z,1002.46
2016-07-11T03:05:27.020Z,1002.45
2016-07-11T03:06:27.019Z,1002.46
2016-07-11T03:07:27.018Z,1002.48
2016-07-11T03:08:27.021Z,1002.49
2016-07-11T03:09:27.022Z,1002.49
2016-07-11T03:10:27.021Z,1002.49
2016-07-11T03:11:27.022Z,1002.51
2016-07-11T03:12:27.022Z,1002.51
2016-07-11T03:13:27.023Z,1002.5
2016-07-11T03:14:27.023Z,1002.49
2016-07-11T03:15:27.021Z,1002.5
2016-07-11T03:16:27.355Z,1002.55
2016-07-11T03:17:27.024Z,1002.51
2016-07-11T03:18:27.174Z,1002.51
2016-07-11T03:19:27.198Z,1002.55
2016-07-11T03:20:27.026Z,1002.54
2016-07-11T03:21:27.379Z,1002.54
2016-07-11T03:22:27.563Z,1002.56
2016-07-11T03:23:27.026Z,1002.53
2016-07-11T03:24:27.028Z,1002.56
2016-07-11T03:25:27.029Z,1002.52
2016-07-11T03:26:27.029Z,1002.57
2016-07-11T03:27:27.028Z,1002.55
2016-07-11T03:28:27.030Z,1002.53
2016-07-11T03:29:27.031Z,1002.53
2016-07-11T03:30:27.030Z,1002.55
2016-07-11T03:31:27.030Z,1002.56
2016-07-11T03:32:27.032Z,1002.58
2016-07-11T03:33:27.031Z,1002.59
2016-07-11T03:34:27.032Z,1002.6
2016-07-11T03:35:27.036Z,1002.64
2016-07-11T03:36:27.036Z,1002.67
2016-07-11T03:37:27.034Z,1002.64
2016-07-11T03:38:27.037Z,1002.65
2016-07-11T03:39:27.087Z,1002.69
2016-07-11T03:40:27.387Z,1002.67
2016-07-11T03:41:27.040Z,1002.66
2016-07-11T03:42:27.038Z,1002.68
2016-07-11T03:43:27.690Z,1002.71
2016-07-11T03:44:27.042Z,1002.72
2016-07-11T03:45:27.043Z,1002.75
2016-07-11T03:46:27.042Z,1002.75
2016-07-11T03:47:27.045Z,1002.77
2016-07-11T03:48:27.047Z,1002.75
2016-07-11T03:49:27.046Z,1002.81
2016-07-11T03:50:27.049Z,1002.8
2016-07-11T03:51:27.047Z,1002.85
2016-07-11T03:52:27.450Z,1002.83
2016-07-11T03:53:27.053Z,1002.85
2016-07-11T03:54:27.054Z,1002.85
2016-07-11T03:55:27.052Z,1002.83
2016-07-11T03:56:27.054Z,1002.84
2016-07-11T03:57:27.056Z,1002.85
2016-07-11T03:58:27.058Z,1002.83
2016-07-11T03:59:27.060Z,1002.85
2016-07-11T04:00:27.062Z,1002.83
2016-07-11T04:01:27.060Z,1002.84
2016-07-11T04:02:27.064Z,1002.83
2016-07-11T04:03:27.064Z,1002.86
2016-07-11T04:04:27.068Z,1002.84
2016-07-11T04:05:27.066Z,1002.85
2016-07-11T04:06:27.071Z,1002.82
2016-07-11T04:07:27.072Z,1002.81
2016-07-11T04:08:27.072Z,1002.77
2016-07-11T04:09:27.076Z,1002.78
2016-07-11T04:10:27.078Z,1002.78
2016-07-11T04:11:27.078Z,1002.8
2016-07-11T04:12:27.079Z,1002.78
2016-07-11T04:13:27.083Z,1002.78
2016-07-11T04:14:27.085Z,1002.8
2016-07-11T04:15:27.088Z,1002.81
2016-07-11T04:16:27.089Z,1002.78
2016-07-11T04:17:27.098Z,1002.8
2016-07-11T04:18:27.093Z,1002.78
2016-07-11T04:19:27.094Z,1002.76
2016-07-11T04:20:27.097Z,1002.76
2016-07-11T04:21:27.098Z,1002.73
2016-07-11T04:22:27.103Z,1002.74
2016-07-11T04:23:27.104Z,1002.73
2016-07-11T04:24:27.104Z,1002.68
2016-07-11T04:25:28.152Z,1002.71
2016-07-11T04:26:27.112Z,1002.72
2016-07-11T04:27:28.494Z,1002.7
2016-07-11T04:28:27.117Z,1002.73
2016-07-11T04:29:27.117Z,1002.71
2016-07-11T04:30:27.119Z,1002.77
2016-07-11T04:31:27.124Z,1002.78
2016-07-11T04:32:27.124Z,1002.8
2016-07-11T04:33:27.131Z,1002.82
2016-07-11T04:34:27.129Z,1002.87
2016-07-11T04:35:27.132Z,1002.9
2016-07-11T04:36:27.138Z,1002.94
2016-07-11T04:37:27.207Z,1002.96
2016-07-11T04:38:27.140Z,1002.97
2016-07-11T04:39:27.145Z,1002.98
2016-07-11T04:40:27.148Z,1003.02
2016-07-11T04:41:27.148Z,1002.99
2016-07-11T04:42:27.152Z,1002.99
2016-07-11T04:43:27.157Z,1003.02
2016-07-11T04:44:27.161Z,1003.07
2016-07-11T04:45:27.161Z,1003.07
2016-07-11T04:46:27.167Z,1003.07
2016-07-11T04:47:27.171Z,1003.1
2016-07-11T04:48:27.176Z,1003.15
2016-07-11T04:49:27.174Z,1003.2
2016-07-11T04:50:27.180Z,1003.14
2016-07-11T04:51:27.184Z,1003.2
2016-07-11T04:52:27.186Z,1003.2
2016-07-11T04:53:27.189Z,1003.21
2016-07-11T04:54:27.196Z,1003.23
2016-07-11T04:55:27.198Z,1003.22
2016-07-11T04:56:27.203Z,1003.19
2016-07-11T04:57:27.208Z,1003.19
2016-07-11T04:58:27.764Z,1003.24
2016-07-11T04:59:27.219Z,1003.26
2016-07-11T05:00:27.273Z,1003.28
2016-07-11T05:01:27.231Z,1003.31
2016-07-11T05:02:27.235Z,1003.27
2016-07-11T05:03:27.238Z,1003.32
2016-07-11T05:04:27.395Z,1003.35
2016-07-11T05:05:27.254Z,1003.35
2016-07-11T05:06:27.260Z,1003.3
2016-07-11T05:07:27.266Z,1003.31
2016-07-11T05:08:27.274Z,1003.23
2016-07-11T05:09:27.280Z,1003.23
2016-07-11T05:10:27.289Z,1003.27
2016-07-11T05:11:27.295Z,1003.26
2016-07-11T05:12:27.305Z,1003.29
2016-07-11T05:13:27.315Z,1003.28
2016-07-11T05:14:27.320Z,1003.34
2016-07-11T05:15:27.328Z,1003.28
2016-07-11T05:16:27.338Z,1003.27
2016-07-11T05:17:27.346Z,1003.33
2016-07-11T05:18:27.353Z,1003.29
2016-07-11T05:19:27.362Z,1003.3
2016-07-11T05:20:27.370Z,1003.38
2016-07-11T05:21:27.378Z,1003.39
2016-07-11T05:22:27.387Z,1003.45
2016-07-11T05:23:27.396Z,1003.45
2016-07-11T05:24:27.402Z,1003.46
2016-07-11T05:25:27.412Z,1003.43
2016-07-11T05:26:27.420Z,1003.4
2016-07-11T05:27:27.427Z,1003.43
2016-07-11T05:28:27.434Z,1003.45
2016-07-11T05:29:27.444Z,1003.46
2016-07-11T05:30:27.452Z,1003.43
2016-07-11T05:31:27.459Z,1003.45
2016-07-11T05:32:27.467Z,1003.41
2016-07-11T05:33:27.476Z,1003.42
2016-07-11T05:34:27.484Z,1003.44
2016-07-11T05:35:27.493Z,1003.43
2016-07-11T05:36:27.497Z,1003.43
2016-07-11T05:37:27.508Z,1003.37
2016-07-11T05:38:27.513Z,1003.4
2016-07-11T05:39:27.523Z,1003.46
2016-07-11T05:40:27.531Z,1003.52
2016-07-11T05:41:27.539Z,1003.48
2016-07-11T05:42:27.548Z,1003.54
2016-07-11T05:43:27.555Z,1003.56
2016-07-11T05:46:27.579Z,1003.66
2016-07-11T05:47:27.587Z,1003.59
2016-07-11T05:48:27.597Z,1003.6
2016-07-11T05:49:27.604Z,1003.55
2016-07-11T05:50:27.614Z,1003.54
2016-07-11T05:51:27.623Z,1003.51
2016-07-11T05:52:27.631Z,1003.49
2016-07-11T05:53:27.640Z,1003.47
2016-07-11T05:54:27.653Z,1003.44
2016-07-11T05:55:27.662Z,1003.52
2016-07-11T05:56:28.776Z,1003.56
2016-07-11T05:57:27.680Z,1003.56
2016-07-11T05:58:27.689Z,1003.63
2016-07-11T05:59:27.704Z,1003.58
2016-07-11T06:00:27.711Z,1003.62
2016-07-11T06:01:27.724Z,1003.59
2016-07-11T06:02:27.735Z,1003.64
2016-07-11T06:03:27.744Z,1003.65
2016-07-11T06:04:27.757Z,1003.66
2016-07-11T06:05:27.766Z,1003.72
2016-07-11T06:06:27.782Z,1003.69
2016-07-11T06:07:27.791Z,1003.74
2016-07-11T06:08:27.804Z,1003.71
2016-07-11T06:09:27.816Z,1003.67
2016-07-11T06:10:27.826Z,1003.71
2016-07-11T06:11:27.840Z,1003.68
2016-07-11T06:12:27.855Z,1003.69
2016-07-11T06:13:27.867Z,1003.71
2016-07-11T06:14:27.880Z,1003.69
2016-07-11T06:15:27.896Z,1003.73
2016-07-11T06:16:27.908Z,1003.74
2016-07-11T06:17:27.921Z,1003.69
2016-07-11T06:18:28.290Z,1003.72
2016-07-11T06:19:27.951Z,1003.69
2016-07-11T06:20:27.966Z,1003.69
2016-07-11T06:21:27.981Z,1003.69
2016-07-11T06:22:27.998Z,1003.71
2016-07-11T06:23:28.012Z,1003.7
2016-07-11T06:24:28.025Z,1003.78
2016-07-11T06:25:28.044Z,1003.79
2016-07-11T06:26:28.059Z,1003.75
2016-07-11T06:27:28.524Z,1003.78
2016-07-11T06:28:28.092Z,1003.73
2016-07-11T06:29:28.106Z,1003.72
2016-07-11T06:30:28.125Z,1003.74
2016-07-11T06:31:28.139Z,1003.7
2016-07-11T06:32:28.155Z,1003.68
2016-07-11T06:33:28.173Z,1003.75
2016-07-11T06:34:28.191Z,1003.75
2016-07-11T06:35:28.208Z,1003.74
2016-07-11T06:36:28.227Z,1003.73
2016-07-11T06:37:28.244Z,1003.77
2016-07-11T06:38:28.258Z,1003.78
2016-07-11T06:39:28.278Z,1003.78
2016-07-11T06:40:28.294Z,1003.77
2016-07-11T06:41:28.315Z,1003.88
2016-07-11T06:42:28.332Z,1003.91
2016-07-11T06:43:28.350Z,1003.97
2016-07-11T06:44:28.367Z,1004.01
2016-07-11T06:45:28.387Z,1003.91
2016-07-11T06:46:28.404Z,1003.99
2016-07-11T06:47:28.421Z,1003.91
2016-07-11T06:48:28.442Z,1003.89
2016-07-11T06:49:28.457Z,1003.97
2016-07-11T06:50:28.477Z,1004.01
2016-07-11T06:51:28.497Z,1004.05
2016-07-11T06:52:28.516Z,1004.06
2016-07-11T06:53:28.534Z,1004.04
2016-07-11T06:54:28.553Z,1004.03
2016-07-11T06:55:28.572Z,1003.99
2016-07-11T06:56:28.590Z,1003.99
2016-07-11T06:57:28.614Z,1003.92
2016-07-11T06:58:28.630Z,1003.95
2016-07-11T06:59:28.648Z,1003.9
2016-07-11T07:00:28.665Z,1004.04
2016-07-11T07:01:28.685Z,1004.08
2016-07-11T07:02:28.706Z,1004.01
2016-07-11T07:03:29.171Z,1004.05
2016-07-11T07:04:28.743Z,1004.04
2016-07-11T07:05:28.760Z,1004
2016-07-11T07:06:28.780Z,1004
2016-07-11T07:07:28.797Z,1004.09
2016-07-11T07:08:28.816Z,1004.06
2016-07-11T07:09:28.835Z,1004.09
2016-07-11T07:10:28.946Z,1004.03
2016-07-11T07:11:28.873Z,1004
2016-07-11T07:12:28.891Z,1004.05
2016-07-11T07:13:28.911Z,1003.95
2016-07-11T07:14:28.929Z,1004.18
2016-07-11T07:15:28.951Z,1004.15
2016-07-11T07:16:28.969Z,1004.09
2016-07-11T07:17:28.986Z,1004.07
2016-07-11T07:18:29.005Z,1004.15
2016-07-11T07:19:29.021Z,1004.2
2016-07-11T07:20:29.058Z,1004.13
2016-07-11T07:21:29.061Z,1004.2
2016-07-11T07:22:29.078Z,1004.23
2016-07-11T07:23:29.099Z,1004.22
2016-07-11T07:24:29.114Z,1004.26
2016-07-11T07:25:29.137Z,1004.33
2016-07-11T07:26:29.155Z,1004.27
2016-07-11T07:27:29.171Z,1004.31
2016-07-11T07:28:29.193Z,1004.37
2016-07-11T07:29:29.208Z,1004.38
2016-07-11T07:30:29.231Z,1004.41
2016-07-11T07:31:29.249Z,1004.46
2016-07-11T07:32:29.267Z,1004.49
2016-07-11T07:33:29.284Z,1004.51
2016-07-11T07:34:29.305Z,1004.62
2016-07-11T07:35:29.326Z,1004.62
2016-07-11T07:36:29.344Z,1004.64
2016-07-11T07:37:29.510Z,1004.59
2016-07-11T07:38:29.379Z,1004.63
2016-07-11T07:39:29.401Z,1004.66
2016-07-11T07:40:29.416Z,1004.61
2016-07-11T07:41:29.584Z,1004.67
2016-07-11T07:42:29.455Z,1004.77
2016-07-11T07:44:29.492Z,1004.72
2016-07-11T07:45:30.461Z,1004.74
2016-07-11T07:46:30.380Z,1004.66
2016-07-11T07:47:29.550Z,1004.68
2016-07-11T07:48:29.568Z,1004.68
2016-07-11T07:49:29.588Z,1004.67
2016-07-11T07:50:29.609Z,1004.79
2016-07-11T07:51:29.624Z,1004.71
2016-07-11T07:52:29.644Z,1004.82
2016-07-11T07:53:29.662Z,1004.78
2016-07-11T07:54:29.683Z,1004.82
2016-07-11T07:55:29.696Z,1004.85
2016-07-11T07:56:29.718Z,1004.9
2016-07-11T07:57:29.734Z,1004.94
2016-07-11T07:58:29.755Z,1004.97
2016-07-11T07:59:29.772Z,1004.98
2016-07-11T08:00:29.796Z,1005.15
2016-07-11T08:01:29.810Z,1005.14
2016-07-11T08:02:29.824Z,1005.22
2016-07-11T08:03:29.846Z,1005.29
2016-07-11T08:04:29.864Z,1005.09
2016-07-11T08:05:29.884Z,1005.13
2016-07-11T08:06:29.902Z,1005.11
2016-07-11T08:07:29.920Z,1005.01
2016-07-11T08:08:29.938Z,1005.07
2016-07-11T08:09:29.955Z,1005.16
2016-07-11T08:10:29.981Z,1005.07
2016-07-11T08:11:29.991Z,1005.01
2016-07-11T08:12:30.011Z,1004.84
2016-07-11T08:13:30.028Z,1004.96
2016-07-11T08:14:30.047Z,1004.95
2016-07-11T08:15:30.062Z,1005
2016-07-11T08:16:30.080Z,1004.91
2016-07-11T08:17:30.094Z,1004.98
2016-07-11T08:18:30.115Z,1004.99
2016-07-11T08:19:30.130Z,1005.01
2016-07-11T08:20:30.148Z,1004.94
2016-07-11T08:21:30.277Z,1004.9
2016-07-11T08:22:30.183Z,1004.94
2016-07-11T08:23:30.198Z,1004.81
2016-07-11T08:24:30.215Z,1004.78
2016-07-11T08:25:30.461Z,1004.69
2016-07-11T08:26:30.251Z,1004.65
2016-07-11T08:27:30.266Z,1004.6
2016-07-11T08:28:30.282Z,1004.59
2016-07-11T08:30:30.313Z,1004.81
2016-07-11T08:31:30.328Z,1004.78
2016-07-11T08:32:30.343Z,1004.72
2016-07-11T08:33:30.358Z,1004.62
2016-07-11T08:34:30.375Z,1004.69
2016-07-11T08:35:30.392Z,1004.69
2016-07-11T08:36:30.405Z,1004.68
2016-07-11T08:37:30.420Z,1004.75
2016-07-11T08:38:30.435Z,1004.71
2016-07-11T08:39:30.450Z,1004.66
2016-07-11T08:40:30.467Z,1004.56
2016-07-11T08:41:30.480Z,1004.59
2016-07-11T08:42:30.491Z,1004.58
2016-07-11T08:43:30.508Z,1004.64
2016-07-11T08:44:30.520Z,1004.63
2016-07-11T08:45:30.537Z,1004.64
2016-07-11T08:46:30.548Z,1004.63
2016-07-11T08:47:30.566Z,1004.78
2016-07-11T08:48:30.576Z,1004.72
2016-07-11T08:49:30.592Z,1004.73
2016-07-11T08:50:30.604Z,1004.71
2016-07-11T08:51:30.618Z,1004.64
2016-07-11T08:52:30.631Z,1004.54
2016-07-11T08:53:31.092Z,1004.45
2016-07-11T08:54:30.658Z,1004.59
2016-07-11T08:55:30.675Z,1004.49
2016-07-11T08:56:30.885Z,1004.44
2016-07-11T08:57:30.698Z,1004.42
2016-07-11T08:58:30.710Z,1004.37
2016-07-11T08:59:30.724Z,1004.41
2016-07-11T09:00:30.737Z,1004.46
2016-07-11T09:01:30.753Z,1004.4
2016-07-11T09:02:30.761Z,1004.41
2016-07-11T09:03:30.778Z,1004.44
2016-07-11T09:04:30.790Z,1004.44
2016-07-11T09:05:30.799Z,1004.42
2016-07-11T09:06:30.810Z,1004.45
2016-07-11T09:07:30.823Z,1004.43
2016-07-11T09:08:30.836Z,1004.44
2016-07-11T09:09:30.854Z,1004.47
2016-07-11T09:10:30.866Z,1004.5
2016-07-11T09:11:30.880Z,1004.49
2016-07-11T09:12:30.889Z,1004.48
2016-07-11T09:13:30.902Z,1004.48
2016-07-11T09:14:30.914Z,1004.49
2016-07-11T09:15:30.928Z,1004.45
2016-07-11T09:16:30.940Z,1004.43
2016-07-11T09:17:30.951Z,1004.33
2016-07-11T09:18:30.962Z,1004.34
2016-07-11T09:19:30.976Z,1004.3
2016-07-11T09:20:30.986Z,1004.33
2016-07-11T09:21:31.000Z,1004.26
2016-07-11T09:22:31.011Z,1004.29
2016-07-11T09:23:31.023Z,1004.26
2016-07-11T09:24:31.037Z,1004.34
2016-07-11T09:25:31.046Z,1004.3
2016-07-11T09:26:31.056Z,1004.32
2016-07-11T09:27:31.067Z,1004.34
2016-07-11T09:28:31.079Z,1004.36
2016-07-11T09:29:31.091Z,1004.38
2016-07-11T09:30:31.100Z,1004.36
2016-07-11T09:31:31.112Z,1004.39
2016-07-11T09:32:31.124Z,1004.39
2016-07-11T09:33:31.136Z,1004.4
2016-07-11T09:34:31.146Z,1004.43
2016-07-11T09:35:31.240Z,1004.43
2016-07-11T09:36:31.167Z,1004.41
2016-07-11T09:37:31.178Z,1004.37
2016-07-11T09:38:31.186Z,1004.4
2016-07-11T09:39:31.198Z,1004.38
2016-07-11T09:40:31.210Z,1004.33
2016-07-11T09:41:32.465Z,1004.35
2016-07-11T09:42:31.228Z,1004.46
2016-07-11T09:43:31.238Z,1004.44
2016-07-11T09:44:31.833Z,1004.46
2016-07-11T09:45:31.261Z,1004.5
2016-07-11T09:46:31.271Z,1004.56
2016-07-11T09:47:31.279Z,1004.47
2016-07-11T09:48:31.291Z,1004.57
2016-07-11T09:49:31.299Z,1004.63
2016-07-11T09:50:32.105Z,1004.69
2016-07-11T09:51:31.319Z,1004.68
2016-07-11T09:52:31.338Z,1004.72
2016-07-11T09:53:31.341Z,1004.53
2016-07-11T09:54:31.651Z,1004.48
2016-07-11T09:55:31.361Z,1004.46
2016-07-11T09:56:31.368Z,1004.57
2016-07-11T09:57:31.381Z,1004.48
2016-07-11T09:58:31.389Z,1004.4
2016-07-11T09:59:31.400Z,1004.42
2016-07-11T10:00:31.410Z,1004.41
2016-07-11T10:01:31.420Z,1004.45
2016-07-11T10:02:31.429Z,1004.43
2016-07-11T10:03:31.436Z,1004.36
2016-07-11T10:04:31.447Z,1004.33
2016-07-11T10:05:31.458Z,1004.42
2016-07-11T10:06:31.468Z,1004.42
2016-07-11T10:07:31.481Z,1004.49
2016-07-11T10:08:31.490Z,1004.6
2016-07-11T10:09:31.501Z,1004.59
2016-07-11T10:10:31.508Z,1004.6
2016-07-11T10:11:31.669Z,1004.56
2016-07-11T10:12:31.530Z,1004.64
2016-07-11T10:16:31.570Z,1004.41
2016-07-11T10:17:31.577Z,1004.4
2016-07-11T10:18:31.587Z,1004.46
2016-07-11T10:19:31.600Z,1004.47
2016-07-11T10:20:31.607Z,1004.67
2016-07-11T10:21:31.617Z,1004.77
2016-07-11T10:22:32.529Z,1004.71
2016-07-11T10:23:31.639Z,1004.76
2016-07-11T10:24:31.650Z,1004.51
2016-07-11T10:25:31.659Z,1004.55
2016-07-11T10:26:31.667Z,1004.73
2016-07-11T10:27:31.677Z,1004.9
2016-07-11T10:28:31.687Z,1004.85
2016-07-11T10:29:31.699Z,1004.86
2016-07-11T10:30:31.708Z,1004.83
2016-07-11T10:31:31.720Z,1004.84
2016-07-11T10:32:31.727Z,1004.77
2016-07-11T10:33:31.737Z,1004.66
2016-07-11T10:34:31.748Z,1004.89
2016-07-11T10:35:31.759Z,1005
2016-07-11T10:36:31.770Z,1004.97
2016-07-11T10:37:31.778Z,1004.88
2016-07-11T10:38:31.792Z,1004.74
2016-07-11T10:39:31.799Z,1004.72
2016-07-11T10:40:31.813Z,1004.68
2016-07-11T10:41:31.820Z,1004.78
2016-07-11T10:42:31.830Z,1004.89
2016-07-11T10:43:31.842Z,1004.87
2016-07-11T10:44:31.852Z,1004.81
2016-07-11T10:45:31.863Z,1004.96
2016-07-11T10:46:31.871Z,1004.89
2016-07-11T10:47:31.881Z,1004.89
2016-07-11T10:48:31.893Z,1004.77
2016-07-11T10:49:31.902Z,1004.69
2016-07-11T10:50:31.914Z,1004.78
2016-07-11T10:51:31.925Z,1004.85
2016-07-11T10:52:31.933Z,1004.85
2016-07-11T10:53:31.946Z,1004.69
2016-07-11T10:54:31.956Z,1004.77
2016-07-11T10:55:31.965Z,1004.79
2016-07-11T10:56:31.978Z,1004.82
2016-07-11T10:57:31.985Z,1004.7
2016-07-11T10:58:31.995Z,1004.82
2016-07-11T10:59:32.008Z,1004.61
2016-07-11T11:00:32.016Z,1004.61
2016-07-11T11:01:32.028Z,1004.63
2016-07-11T11:02:32.041Z,1004.67
2016-07-11T11:03:32.049Z,1004.66
2016-07-11T11:04:32.061Z,1004.58
2016-07-11T11:05:32.071Z,1004.51
2016-07-11T11:06:32.081Z,1004.45
2016-07-11T11:07:32.093Z,1004.47
2016-07-11T11:08:32.104Z,1004.51
2016-07-11T11:09:32.112Z,1004.48
2016-07-11T11:10:32.121Z,1004.61
2016-07-11T11:11:32.134Z,1004.61
2016-07-11T11:12:32.144Z,1004.71
2016-07-11T11:13:32.154Z,1004.86
2016-07-11T11:14:32.165Z,1004.65
2016-07-11T11:15:32.174Z,1004.64
2016-07-11T11:16:32.185Z,1004.62
2016-07-11T11:17:51.397Z,1004.7
2016-07-11T11:20:32.227Z,1004.97
2016-07-11T11:21:32.236Z,1004.83
2016-07-11T11:22:32.245Z,1004.62
2016-07-11T11:23:32.254Z,1004.6
2016-07-11T11:24:32.266Z,1004.65
2016-07-11T11:25:32.275Z,1004.73
2016-07-11T11:26:32.285Z,1004.55
2016-07-11T11:27:32.294Z,1004.52
2016-07-11T11:28:32.305Z,1004.56
2016-07-11T11:29:32.316Z,1004.52
2016-07-11T11:30:32.729Z,1004.71
2016-07-11T11:31:32.337Z,1004.77
2016-07-11T11:32:32.346Z,1004.78
2016-07-11T11:33:32.358Z,1004.52
2016-07-11T11:34:32.367Z,1004.64
2016-07-11T11:35:32.377Z,1004.57
2016-07-11T11:36:32.388Z,1004.58
2016-07-11T11:37:32.399Z,1004.56
2016-07-11T11:38:32.406Z,1004.67
2016-07-11T11:39:32.468Z,1004.86
2016-07-11T11:40:32.428Z,1005.03
2016-07-11T11:41:32.438Z,1004.99
2016-07-11T11:42:32.448Z,1005
2016-07-11T11:43:32.459Z,1004.91
2016-07-11T11:44:32.717Z,1004.77
2016-07-11T11:45:32.476Z,1004.9
2016-07-11T11:46:32.486Z,1004.84
2016-07-11T11:47:32.499Z,1004.5
2016-07-11T11:48:32.508Z,1004.46
2016-07-11T11:49:32.518Z,1004.45
2016-07-11T11:50:32.528Z,1004.51
2016-07-11T11:51:32.538Z,1004.61
2016-07-11T11:52:32.548Z,1005.01
2016-07-11T11:53:32.556Z,1004.89
2016-07-11T11:54:32.565Z,1004.78
2016-07-11T11:55:32.580Z,1004.77
2016-07-11T11:57:32.596Z,1004.55
2016-07-11T11:58:33.236Z,1004.62
2016-07-11T11:59:32.616Z,1004.7
2016-07-11T12:00:32.625Z,1004.76
2016-07-11T12:01:32.636Z,1004.66
2016-07-11T12:02:33.045Z,1004.47
2016-07-11T12:03:32.659Z,1004.42
2016-07-11T12:04:32.665Z,1004.61
2016-07-11T12:05:32.677Z,1004.56
2016-07-11T12:06:32.687Z,1004.57
2016-07-11T12:07:32.695Z,1004.49
2016-07-11T12:08:32.705Z,1004.57
2016-07-11T12:09:32.715Z,1004.6
2016-07-11T12:10:32.726Z,1004.48
2016-07-11T12:11:32.736Z,1004.51
2016-07-11T12:12:32.746Z,1004.81
2016-07-11T12:13:32.754Z,1004.54
2016-07-11T12:14:32.766Z,1004.51
2016-07-11T12:15:32.775Z,1004.6
2016-07-11T12:16:32.785Z,1004.64
2016-07-11T12:17:32.794Z,1004.74
2016-07-11T12:18:32.805Z,1004.65
2016-07-11T12:19:32.814Z,1004.76
2016-07-11T12:20:32.824Z,1004.66